PATA

Details ICAO PATA
Name RALPH M CALHOUN MEM
Region USA (Alaska)
Timezone America/Anchorage (UTC-8.0)
Plans Departing 10
Arriving 4
Stats Elevation 227 ft / 69 m (AMSL)
Location 65.174400° -152.109000°
Runways 1
Magnetic Variation 15.646° E
Sunrise 2018-10-20 17:19:39 UTC / 2018-10-20 09:19:39 Local
Sunset 2018-10-21 02:28:59 UTC / 2018-10-20 18:28:59 Local
Advertisement - Login to hide

Runways

ID Width Length Bearing (true/mag) Surface Threshold Overrun Markings Lighting
07 150 ft / 46 m 4,372 ft / 1,333 m 89.30° / 73.65° GRAVEL 0 ft / 0 m 420 ft / 128 m VISUAL EDGE THRESHOLD
25 150 ft / 46 m 4,372 ft / 1,333 m 269.32° / 253.68° GRAVEL 0 ft / 0 m 200 ft / 61 m VISUAL EDGE THRESHOLD

Map

Weather


0- 5 10 15 20 25 30 35+ Temperature / °C

Clouds and Precipitation
Forecast for 2018-10-20 12:00 UTC. Updated 4 hours ago

Ground ~20,000 ft ~40,000 ft Winds

METAR

PATA 201252Z AUTO 00000KT 10SM OVC070 02/M01 A2942 RMK AO2 SLP966 T00171006 TSNO

TAF

PATA 201142Z 2012/2112 33005KT P6SM VCSH SCT025 OVC050

Frequencies

Recorded 135.10 MHz ASOS
Unicom 122.90 MHz CTAF
Warning: Do not use this data for real-world aviation or navigation. No guarantee of current accuracy is given.